sensor_id;sensor_type;location;lat;lon;timestamp;pressure;altitude;pressure_sealevel;temperature;humidity
9474;BME280;8865;47.636;7.692;2022-09-09T00:00:25;98036.50;;;15.55;100.00
9474;BME280;8865;47.636;7.692;2022-09-09T00:05:38;98056.78;;;15.63;100.00
9474;BME280;8865;47.636;7.692;2022-09-09T00:08:15;98061.38;;;15.69;100.00
9474;BME280;8865;47.636;7.692;2022-09-09T00:10:45;98064.19;;;15.67;100.00
9474;BME280;8865;47.636;7.692;2022-09-09T00:13:41;98059.41;;;15.79;100.00
9474;BME280;8865;47.636;7.692;2022-09-09T00:16:21;98068.44;;;15.77;100.00
9474;BME280;8865;47.636;7.692;2022-09-09T00:18:56;98074.28;;;15.80;100.00
9474;BME280;8865;47.636;7.692;2022-09-09T00:21:37;98066.81;;;15.84;100.00
9474;BME280;8865;47.636;7.692;2022-09-09T00:24:27;98060.06;;;15.81;100.00
9474;BME280;8865;47.636;7.692;2022-09-09T00:27:11;98061.06;;;15.80;100.00
9474;BME280;8865;47.636;7.692;2022-09-09T00:29:49;98057.75;;;15.78;100.00
9474;BME280;8865;47.636;7.692;2022-09-09T00:32:20;98060.06;;;15.73;100.00
9474;BME280;8865;47.636;7.692;2022-09-09T00:34:56;98060.22;;;15.71;100.00
9474;BME280;8865;47.636;7.692;2022-09-09T00:37:25;98057.59;;;15.63;100.00
9474;BME280;8865;47.636;7.692;2022-09-09T00:39:55;98059.59;;;15.61;100.00
9474;BME280;8865;47.636;7.692;2022-09-09T00:42:25;98060.06;;;15.65;100.00
9474;BME280;8865;47.636;7.692;2022-09-09T00:44:58;98059.59;;;15.61;100.00
9474;BME280;8865;47.636;7.692;2022-09-09T00:50:05;98070.63;;;15.65;100.00
9474;BME280;8865;47.636;7.692;2022-09-09T00:55:27;98072.28;;;15.66;100.00
9474;BME280;8865;47.636;7.692;2022-09-09T00:57:58;98086.28;;;15.75;100.00
9474;BME280;8865;47.636;7.692;2022-09-09T01:00:30;98088.28;;;15.81;100.00
9474;BME280;8865;47.636;7.692;2022-09-09T01:08:00;98102.13;;;15.91;100.00
9474;BME280;8865;47.636;7.692;2022-09-09T01:13:00;98123.25;;;15.91;100.00
9474;BME280;8865;47.636;7.692;2022-09-09T01:15:32;98119.09;;;15.97;100.00
9474;BME280;8865;47.636;7.692;2022-09-09T01:18:07;98109.19;;;15.99;100.00
9474;BME280;8865;47.636;7.692;2022-09-09T01:23:45;98089.59;;;15.85;100.00
9474;BME280;8865;47.636;7.692;2022-09-09T01:26:22;98101.78;;;15.86;100.00
9474;BME280;8865;47.636;7.692;2022-09-09T01:28:51;98108.09;;;15.85;100.00
9474;BME280;8865;47.636;7.692;2022-09-09T01:31:33;98100.00;;;15.78;100.00
9474;BME280;8865;47.636;7.692;2022-09-09T01:34:08;98101.50;;;15.81;100.00
9474;BME280;8865;47.636;7.692;2022-09-09T01:36:40;98107.75;;;15.80;100.00
9474;BME280;8865;47.636;7.692;2022-09-09T01:39:08;98103.97;;;15.82;100.00
9474;BME280;8865;47.636;7.692;2022-09-09T01:41:34;98095.69;;;15.85;100.00
9474;BME280;8865;47.636;7.692;2022-09-09T01:44:00;98103.97;;;15.82;100.00
9474;BME280;8865;47.636;7.692;2022-09-09T01:46:27;98109.25;;;15.82;100.00
9474;BME280;8865;47.636;7.692;2022-09-09T01:48:54;98111.06;;;15.82;100.00
9474;BME280;8865;47.636;7.692;2022-09-09T01:51:21;98121.63;;;15.82;100.00
9474;BME280;8865;47.636;7.692;2022-09-09T01:53:47;98123.44;;;15.81;100.00
9474;BME280;8865;47.636;7.692;2022-09-09T01:59:40;98107.09;;;15.78;100.00
9474;BME280;8865;47.636;7.692;2022-09-09T02:02:18;98109.22;;;15.74;100.00
9474;BME280;8865;47.636;7.692;2022-09-09T02:04:50;98123.25;;;15.75;100.00
9474;BME280;8865;47.636;7.692;2022-09-09T02:10:00;98109.38;;;15.72;100.00
9474;BME280;8865;47.636;7.692;2022-09-09T02:12:28;98104.09;;;15.72;100.00
9474;BME280;8865;47.636;7.692;2022-09-09T02:15:05;98111.53;;;15.77;100.00
9474;BME280;8865;47.636;7.692;2022-09-09T02:17:36;98107.94;;;15.78;100.00
9474;BME280;8865;47.636;7.692;2022-09-09T02:20:10;98102.63;;;15.78;100.00
9474;BME280;8865;47.636;7.692;2022-09-09T02:22:39;98103.47;;;15.79;100.00
9474;BME280;8865;47.636;7.692;2022-09-09T02:25:10;98108.75;;;15.79;100.00
9474;BME280;8865;47.636;7.692;2022-09-09T02:27:39;98104.13;;;15.81;100.00
9474;BME280;8865;47.636;7.692;2022-09-09T02:30:08;98108.09;;;15.85;100.00
9474;BME280;8865;47.636;7.692;2022-09-09T02:32:35;98101.31;;;15.82;100.00
9474;BME280;8865;47.636;7.692;2022-09-09T02:35:11;98100.50;;;15.82;100.00
9474;BME280;8865;47.636;7.692;2022-09-09T02:37:39;98089.78;;;15.83;100.00
9474;BME280;8865;47.636;7.692;2022-09-09T02:40:08;98094.56;;;15.80;100.00
9474;BME280;8865;47.636;7.692;2022-09-09T02:42:39;98093.75;;;15.79;100.00
9474;BME280;8865;47.636;7.692;2022-09-09T02:45:07;98082.31;;;15.79;100.00
9474;BME280;8865;47.636;7.692;2022-09-09T02:50:35;98090.72;;;15.74;100.00
9474;BME280;8865;47.636;7.692;2022-09-09T02:53:37;98090.91;;;15.72;100.00
9474;BME280;8865;47.636;7.692;2022-09-09T02:56:09;98105.75;;;15.74;100.00
9474;BME280;8865;47.636;7.692;2022-09-09T02:58:38;98100.66;;;15.72;100.00
9474;BME280;8865;47.636;7.692;2022-09-09T03:01:05;98100.47;;;15.74;100.00
9474;BME280;8865;47.636;7.692;2022-09-09T03:03:31;98099.19;;;15.78;100.00
9474;BME280;8865;47.636;7.692;2022-09-09T03:05:58;98099.03;;;15.79;100.00
9474;BME280;8865;47.636;7.692;2022-09-09T03:08:24;98106.78;;;15.81;100.00
9474;BME280;8865;47.636;7.692;2022-09-09T03:10:49;98103.16;;;15.82;100.00
9474;BME280;8865;47.636;7.692;2022-09-09T03:13:15;98108.91;;;15.85;100.00
9474;BME280;8865;47.636;7.692;2022-09-09T03:15:42;98115.34;;;15.83;100.00
9474;BME280;8865;47.636;7.692;2022-09-09T03:18:08;98115.66;;;15.88;100.00
9474;BME280;8865;47.636;7.692;2022-09-09T03:20:34;98103.94;;;15.91;100.00
9474;BME280;8865;47.636;7.692;2022-09-09T03:23:00;98103.09;;;15.90;100.00
9474;BME280;8865;47.636;7.692;2022-09-09T03:25:26;98091.06;;;15.87;100.00
9474;BME280;8865;47.636;7.692;2022-09-09T03:27:54;98093.53;;;15.89;100.00
9474;BME280;8865;47.636;7.692;2022-09-09T03:30:22;98091.72;;;15.89;100.00
9474;BME280;8865;47.636;7.692;2022-09-09T03:32:48;98087.44;;;15.88;100.00
9474;BME280;8865;47.636;7.692;2022-09-09T03:35:14;98093.88;;;15.86;100.00
9474;BME280;8865;47.636;7.692;2022-09-09T03:37:41;98098.16;;;15.87;100.00
9474;BME280;8865;47.636;7.692;2022-09-09T03:40:07;98097.19;;;15.88;100.00
9474;BME280;8865;47.636;7.692;2022-09-09T03:42:36;98098.97;;;15.87;100.00
9474;BME280;8865;47.636;7.692;2022-09-09T03:45:06;98102.13;;;15.91;100.00
9474;BME280;8865;47.636;7.692;2022-09-09T03:47:32;98109.03;;;15.92;100.00
9474;BME280;8865;47.636;7.692;2022-09-09T03:49:58;98101.44;;;15.89;100.00
9474;BME280;8865;47.636;7.692;2022-09-09T03:52:24;98095.19;;;15.90;100.00
9474;BME280;8865;47.636;7.692;2022-09-09T03:54:52;98113.50;;;15.92;100.00
9474;BME280;8865;47.636;7.692;2022-09-09T03:57:19;98089.25;;;15.88;100.00
9474;BME280;8865;47.636;7.692;2022-09-09T03:59:45;98086.63;;;15.88;100.00
9474;BME280;8865;47.636;7.692;2022-09-09T04:02:11;98086.44;;;15.89;100.00
9474;BME280;8865;47.636;7.692;2022-09-09T04:04:37;98078.69;;;15.80;100.00
9474;BME280;8865;47.636;7.692;2022-09-09T04:07:03;98084.16;;;15.78;100.00
9474;BME280;8865;47.636;7.692;2022-09-09T04:09:32;98086.78;;;15.78;100.00
9474;BME280;8865;47.636;7.692;2022-09-09T04:11:59;98083.34;;;15.78;100.00
9474;BME280;8865;47.636;7.692;2022-09-09T04:14:24;98088.94;;;15.75;100.00
9474;BME280;8865;47.636;7.692;2022-09-09T04:16:53;98085.13;;;15.77;100.00
9474;BME280;8865;47.636;7.692;2022-09-09T04:19:19;98090.72;;;15.74;100.00
9474;BME280;8865;47.636;7.692;2022-09-09T04:21:45;98097.19;;;15.71;100.00
9474;BME280;8865;47.636;7.692;2022-09-09T04:24:11;98097.19;;;15.71;100.00
9474;BME280;8865;47.636;7.692;2022-09-09T04:26:37;98091.06;;;15.71;100.00
9474;BME280;8865;47.636;7.692;2022-09-09T04:29:04;98096.19;;;15.72;100.00
9474;BME280;8865;47.636;7.692;2022-09-09T04:31:30;98096.53;;;15.69;100.00
9474;BME280;8865;47.636;7.692;2022-09-09T04:33:56;98096.69;;;15.68;100.00
9474;BME280;8865;47.636;7.692;2022-09-09T04:36:22;98092.59;;;15.65;100.00
9474;BME280;8865;47.636;7.692;2022-09-09T04:38:48;98097.03;;;15.65;100.00
9474;BME280;8865;47.636;7.692;2022-09-09T04:41:17;98091.75;;;15.65;100.00
9474;BME280;8865;47.636;7.692;2022-09-09T04:43:43;98100.97;;;15.69;100.00
9474;BME280;8865;47.636;7.692;2022-09-09T04:46:09;98106.91;;;15.71;100.00
9474;BME280;8865;47.636;7.692;2022-09-09T04:48:35;98106.09;;;15.70;100.00
9474;BME280;8865;47.636;7.692;2022-09-09T04:51:03;98105.13;;;15.71;100.00
9474;BME280;8865;47.636;7.692;2022-09-09T04:53:31;98106.75;;;15.72;100.00
9474;BME280;8865;47.636;7.692;2022-09-09T04:58:29;98101.81;;;15.78;100.00
9474;BME280;8865;47.636;7.692;2022-09-09T05:00:55;98107.75;;;15.80;100.00
9474;BME280;8865;47.636;7.692;2022-09-09T05:03:21;98110.22;;;15.81;100.00
9474;BME280;8865;47.636;7.692;2022-09-09T05:05:47;98107.94;;;15.78;100.00
9474;BME280;8865;47.636;7.692;2022-09-09T05:08:13;98111.25;;;15.80;100.00
9474;BME280;8865;47.636;7.692;2022-09-09T05:10:39;98101.28;;;15.74;100.00
9474;BME280;8865;47.636;7.692;2022-09-09T05:13:07;98101.28;;;15.74;100.00
9474;BME280;8865;47.636;7.692;2022-09-09T05:15:33;98099.50;;;15.75;100.00
9474;BME280;8865;47.636;7.692;2022-09-09T05:18:00;98098.34;;;15.69;100.00
9474;BME280;8865;47.636;7.692;2022-09-09T05:20:27;98106.09;;;15.70;100.00
9474;BME280;8865;47.636;7.692;2022-09-09T05:22:54;98106.09;;;15.70;100.00
9474;BME280;8865;47.636;7.692;2022-09-09T05:25:20;98113.69;;;15.74;100.00
9474;BME280;8865;47.636;7.692;2022-09-09T05:27:47;98114.66;;;15.72;100.00
9474;BME280;8865;47.636;7.692;2022-09-09T05:30:14;98115.97;;;15.77;100.00
9474;BME280;8865;47.636;7.692;2022-09-09T05:32:40;98125.09;;;15.82;100.00
9474;BME280;8865;47.636;7.692;2022-09-09T05:35:07;98118.97;;;15.90;100.00
9474;BME280;8865;47.636;7.692;2022-09-09T05:37:32;98122.25;;;15.92;100.00
9474;BME280;8865;47.636;7.692;2022-09-09T05:39:59;98115.81;;;15.95;100.00
9474;BME280;8865;47.636;7.692;2022-09-09T05:42:29;98120.06;;;16.04;100.00
9474;BME280;8865;47.636;7.692;2022-09-09T05:44:56;98123.84;;;16.10;100.00
9474;BME280;8865;47.636;7.692;2022-09-09T05:47:23;98115.94;;;16.10;100.00
9474;BME280;8865;47.636;7.692;2022-09-09T05:49:49;98107.00;;;16.11;100.00
9474;BME280;8865;47.636;7.692;2022-09-09T05:52:15;98118.88;;;16.15;100.00
9474;BME280;8865;47.636;7.692;2022-09-09T05:54:41;98118.66;;;16.24;100.00
9474;BME280;8865;47.636;7.692;2022-09-09T05:57:08;98116.63;;;16.35;100.00
9474;BME280;8865;47.636;7.692;2022-09-09T05:59:34;98124.84;;;16.48;100.00
9474;BME280;8865;47.636;7.692;2022-09-09T06:02:00;98128.06;;;16.58;100.00
9474;BME280;8865;47.636;7.692;2022-09-09T06:04:26;98129.84;;;16.66;100.00
9474;BME280;8865;47.636;7.692;2022-09-09T06:06:52;98136.63;;;16.69;100.00
9474;BME280;8865;47.636;7.692;2022-09-09T06:09:18;98135.81;;;16.68;100.00
9474;BME280;8865;47.636;7.692;2022-09-09T06:11:44;98123.28;;;16.62;100.00
9474;BME280;8865;47.636;7.692;2022-09-09T06:14:10;98121.31;;;16.56;100.00
9474;BME280;8865;47.636;7.692;2022-09-09T06:16:36;98130.53;;;16.60;100.00
9474;BME280;8865;47.636;7.692;2022-09-09T06:19:03;98130.88;;;16.57;100.00
9474;BME280;8865;47.636;7.692;2022-09-09T06:21:34;98130.19;;;16.63;100.00
9474;BME280;8865;47.636;7.692;2022-09-09T06:24:04;98131.22;;;16.62;100.00
9474;BME280;8865;47.636;7.692;2022-09-09T06:26:35;98128.38;;;16.64;100.00
9474;BME280;8865;47.636;7.692;2022-09-09T06:29:03;98123.69;;;16.74;100.00
9474;BME280;8865;47.636;7.692;2022-09-09T06:31:31;98122.16;;;16.88;100.00
9474;BME280;8865;47.636;7.692;2022-09-09T06:33:58;98122.19;;;17.03;100.00
9474;BME280;8865;47.636;7.692;2022-09-09T06:36:29;98115.84;;;17.12;100.00
9474;BME280;8865;47.636;7.692;2022-09-09T06:38:55;98120.56;;;17.25;100.00
9474;BME280;8865;47.636;7.692;2022-09-09T06:41:28;98123.69;;;17.43;100.00
9474;BME280;8865;47.636;7.692;2022-09-09T06:43:54;98131.22;;;17.70;100.00
9474;BME280;8865;47.636;7.692;2022-09-09T06:46:25;98116.28;;;17.92;100.00
9474;BME280;8865;47.636;7.692;2022-09-09T06:48:56;98124.69;;;18.10;100.00
9474;BME280;8865;47.636;7.692;2022-09-09T06:51:24;98114.19;;;18.17;100.00
9474;BME280;8865;47.636;7.692;2022-09-09T06:53:53;98114.38;;;18.15;100.00
9474;BME280;8865;47.636;7.692;2022-09-09T06:56:25;98116.91;;;18.09;100.00
9474;BME280;8865;47.636;7.692;2022-09-09T06:58:54;98124.97;;;18.00;100.00
9474;BME280;8865;47.636;7.692;2022-09-09T07:01:27;98117.13;;;17.92;100.00
9474;BME280;8865;47.636;7.692;2022-09-09T07:03:56;98122.28;;;17.85;100.00
9474;BME280;8865;47.636;7.692;2022-09-09T07:06:25;98129.22;;;17.87;100.00
9474;BME280;8865;47.636;7.692;2022-09-09T07:08:52;98137.19;;;17.87;100.00
9474;BME280;8865;47.636;7.692;2022-09-09T07:11:23;98134.66;;;17.93;100.00
9474;BME280;8865;47.636;7.692;2022-09-09T07:13:49;98137.41;;;18.00;100.00
9474;BME280;8865;47.636;7.692;2022-09-09T07:16:18;98133.91;;;18.14;100.00
9474;BME280;8865;47.636;7.692;2022-09-09T07:18:44;98134.47;;;18.25;100.00
9474;BME280;8865;47.636;7.692;2022-09-09T07:21:12;98135.00;;;18.35;100.00
9474;BME280;8865;47.636;7.692;2022-09-09T07:23:39;98140.84;;;18.45;100.00
9474;BME280;8865;47.636;7.692;2022-09-09T07:26:12;98131.69;;;18.48;100.00
9474;BME280;8865;47.636;7.692;2022-09-09T07:28:39;98139.09;;;18.52;100.00
9474;BME280;8865;47.636;7.692;2022-09-09T07:31:07;98131.19;;;18.59;100.00
9474;BME280;8865;47.636;7.692;2022-09-09T07:33:39;98136.34;;;18.82;100.00
9474;BME280;8865;47.636;7.692;2022-09-09T07:36:14;98136.00;;;19.07;100.00
9474;BME280;8865;47.636;7.692;2022-09-09T07:38:46;98131.63;;;19.21;100.00
9474;BME280;8865;47.636;7.692;2022-09-09T07:41:15;98131.81;;;19.41;100.00
9474;BME280;8865;47.636;7.692;2022-09-09T07:43:44;98132.03;;;19.68;100.00
9474;BME280;8865;47.636;7.692;2022-09-09T07:46:17;98129.16;;;19.97;100.00
9474;BME280;8865;47.636;7.692;2022-09-09T07:48:46;98126.19;;;20.14;100.00
9474;BME280;8865;47.636;7.692;2022-09-09T07:51:17;98116.16;;;20.16;100.00
9474;BME280;8865;47.636;7.692;2022-09-09T07:53:45;98125.41;;;20.20;100.00
9474;BME280;8865;47.636;7.692;2022-09-09T07:56:13;98140.75;;;20.25;100.00
9474;BME280;8865;47.636;7.692;2022-09-09T07:58:40;98126.66;;;20.24;100.00
9474;BME280;8865;47.636;7.692;2022-09-09T08:01:08;98131.50;;;20.14;100.00
9474;BME280;8865;47.636;7.692;2022-09-09T08:03:35;98119.63;;;20.10;100.00
9474;BME280;8865;47.636;7.692;2022-09-09T08:06:03;98116.75;;;20.11;100.00
9474;BME280;8865;47.636;7.692;2022-09-09T08:08:30;98119.72;;;20.30;100.00
9474;BME280;8865;47.636;7.692;2022-09-09T08:13:36;98125.59;;;20.67;100.00
9474;BME280;8865;47.636;7.692;2022-09-09T08:16:30;98103.97;;;21.23;100.00
9474;BME280;8865;47.636;7.692;2022-09-09T08:18:56;98093.75;;;21.34;100.00
9474;BME280;8865;47.636;7.692;2022-09-09T08:21:28;98088.41;;;21.34;100.00
9474;BME280;8865;47.636;7.692;2022-09-09T08:23:56;98099.50;;;21.51;100.00
9474;BME280;8865;47.636;7.692;2022-09-09T08:26:25;98101.09;;;21.65;100.00
9474;BME280;8865;47.636;7.692;2022-09-09T08:28:52;98104.78;;;21.77;100.00
9474;BME280;8865;47.636;7.692;2022-09-09T08:31:21;98098.22;;;21.80;100.00
9474;BME280;8865;47.636;7.692;2022-09-09T08:33:48;98098.44;;;21.65;100.00
9474;BME280;8865;47.636;7.692;2022-09-09T08:36:22;98086.38;;;21.43;100.00
9474;BME280;8865;47.636;7.692;2022-09-09T08:38:50;98099.28;;;21.52;100.00
9474;BME280;8865;47.636;7.692;2022-09-09T08:53:12;98101.91;;;21.79;100.00
9474;BME280;8865;47.636;7.692;2022-09-09T08:58:33;98090.69;;;22.29;100.00
9474;BME280;8865;47.636;7.692;2022-09-09T09:09:29;98080.41;;;23.35;100.00
9474;BME280;8865;47.636;7.692;2022-09-09T09:12:01;98089.22;;;23.61;100.00
9474;BME280;8865;47.636;7.692;2022-09-09T09:14:30;98081.47;;;23.96;100.00
9474;BME280;8865;47.636;7.692;2022-09-09T09:17:02;98088.56;;;24.39;94.21
9474;BME280;8865;47.636;7.692;2022-09-09T09:19:31;98081.88;;;24.91;88.99
9474;BME280;8865;47.636;7.692;2022-09-09T09:22:20;98082.34;;;25.77;93.04
9474;BME280;8865;47.636;7.692;2022-09-09T09:25:18;98069.97;;;26.69;88.25
9474;BME280;8865;47.636;7.692;2022-09-09T09:27:57;98064.69;;;26.75;63.73
9474;BME280;8865;47.636;7.692;2022-09-09T09:30:29;98075.84;;;26.14;60.76
9474;BME280;8865;47.636;7.692;2022-09-09T09:33:11;98077.22;;;25.76;58.23
9474;BME280;8865;47.636;7.692;2022-09-09T09:35:40;98073.00;;;25.80;60.59
9474;BME280;8865;47.636;7.692;2022-09-09T09:38:19;98069.78;;;24.88;63.42
9474;BME280;8865;47.636;7.692;2022-09-09T09:40:52;98076.16;;;26.00;65.91
9474;BME280;8865;47.636;7.692;2022-09-09T09:43:34;98073.97;;;26.84;55.23
9474;BME280;8865;47.636;7.692;2022-09-09T09:46:03;98085.63;;;26.32;54.82
9474;BME280;8865;47.636;7.692;2022-09-09T09:48:29;98081.72;;;24.74;60.93
9474;BME280;8865;47.636;7.692;2022-09-09T09:51:02;98079.25;;;27.41;55.97
9474;BME280;8865;47.636;7.692;2022-09-09T09:53:32;98074.13;;;28.45;46.52
9474;BME280;8865;47.636;7.692;2022-09-09T09:56:02;98063.72;;;31.40;40.63
9474;BME280;8865;47.636;7.692;2022-09-09T09:58:33;98058.41;;;34.31;38.37
9474;BME280;8865;47.636;7.692;2022-09-09T10:01:01;98045.25;;;35.28;32.39
9474;BME280;8865;47.636;7.692;2022-09-09T10:03:33;98042.03;;;35.68;31.01
9474;BME280;8865;47.636;7.692;2022-09-09T10:06:05;98038.72;;;37.08;30.44
9474;BME280;8865;47.636;7.692;2022-09-09T10:08:34;98027.50;;;37.73;28.97
9474;BME280;8865;47.636;7.692;2022-09-09T10:13:31;98037.13;;;38.71;26.35
9474;BME280;8865;47.636;7.692;2022-09-09T10:19:20;98021.34;;;38.25;25.22
9474;BME280;8865;47.636;7.692;2022-09-09T10:22:19;98028.75;;;37.75;26.82
9474;BME280;8865;47.636;7.692;2022-09-09T10:41:02;97999.22;;;35.13;26.85
9474;BME280;8865;47.636;7.692;2022-09-09T10:56:15;97992.28;;;34.55;27.15
9474;BME280;8865;47.636;7.692;2022-09-09T11:01:46;97984.78;;;34.98;26.25
9474;BME280;8865;47.636;7.692;2022-09-09T11:04:35;97989.91;;;38.04;23.45
9474;BME280;8865;47.636;7.692;2022-09-09T11:07:30;97997.03;;;38.32;23.71
9474;BME280;8865;47.636;7.692;2022-09-09T11:12:50;97997.53;;;38.34;24.92
9474;BME280;8865;47.636;7.692;2022-09-09T11:15:45;98000.56;;;41.31;23.21
9474;BME280;8865;47.636;7.692;2022-09-09T11:18:23;97998.88;;;42.85;21.42
9474;BME280;8865;47.636;7.692;2022-09-09T11:20:58;97999.94;;;44.28;20.42
9474;BME280;8865;47.636;7.692;2022-09-09T11:23:50;97988.94;;;44.70;18.52
9474;BME280;8865;47.636;7.692;2022-09-09T11:26:43;97992.81;;;46.15;17.74
9474;BME280;8865;47.636;7.692;2022-09-09T11:29:22;97990.78;;;47.14;18.42
9474;BME280;8865;47.636;7.692;2022-09-09T11:31:57;97988.06;;;45.09;16.93
9474;BME280;8865;47.636;7.692;2022-09-09T11:38:13;97993.88;;;46.34;16.34
9474;BME280;8865;47.636;7.692;2022-09-09T11:40:45;97990.06;;;42.23;17.98
9474;BME280;8865;47.636;7.692;2022-09-09T11:43:23;97984.25;;;39.44;20.54
9474;BME280;8865;47.636;7.692;2022-09-09T11:45:52;97980.34;;;38.98;21.75
9474;BME280;8865;47.636;7.692;2022-09-09T11:51:29;97991.19;;;43.07;19.27
9474;BME280;8865;47.636;7.692;2022-09-09T11:54:31;97980.19;;;45.84;17.33
9474;BME280;8865;47.636;7.692;2022-09-09T12:09:06;97991.13;;;35.08;26.77
9474;BME280;8865;47.636;7.692;2022-09-09T12:11:36;97985.03;;;35.71;29.02
9474;BME280;8865;47.636;7.692;2022-09-09T12:17:31;97968.19;;;40.91;20.17
9474;BME280;8865;47.636;7.692;2022-09-09T12:32:00;97967.72;;;46.62;14.81
9474;BME280;8865;47.636;7.692;2022-09-09T12:40:28;97972.19;;;45.52;16.18
9474;BME280;8865;47.636;7.692;2022-09-09T12:42:58;97986.09;;;41.71;17.44
9474;BME280;8865;47.636;7.692;2022-09-09T12:45:40;97970.81;;;39.22;20.20
9474;BME280;8865;47.636;7.692;2022-09-09T12:48:14;97974.69;;;39.21;19.82
9474;BME280;8865;47.636;7.692;2022-09-09T12:50:51;97982.38;;;37.52;21.73
9474;BME280;8865;47.636;7.692;2022-09-09T12:53:30;97990.66;;;32.89;26.12
9474;BME280;8865;47.636;7.692;2022-09-09T12:56:06;97979.03;;;32.49;28.18
9474;BME280;8865;47.636;7.692;2022-09-09T12:58:33;97992.88;;;30.96;30.37
9474;BME280;8865;47.636;7.692;2022-09-09T13:01:02;97995.97;;;29.96;31.95
9474;BME280;8865;47.636;7.692;2022-09-09T13:03:32;98000.53;;;29.37;33.38
9474;BME280;8865;47.636;7.692;2022-09-09T13:06:11;97986.22;;;28.61;34.08
9474;BME280;8865;47.636;7.692;2022-09-09T13:08:38;97992.28;;;27.97;33.96
9474;BME280;8865;47.636;7.692;2022-09-09T13:11:09;97983.22;;;27.42;37.37
9474;BME280;8865;47.636;7.692;2022-09-09T13:13:40;97979.66;;;27.19;37.32
9474;BME280;8865;47.636;7.692;2022-09-09T13:16:19;97986.28;;;26.78;37.94
9474;BME280;8865;47.636;7.692;2022-09-09T13:18:46;97989.25;;;26.64;39.48
9474;BME280;8865;47.636;7.692;2022-09-09T13:21:12;97985.81;;;26.52;41.87
9474;BME280;8865;47.636;7.692;2022-09-09T13:23:39;97981.19;;;26.18;39.05
9474;BME280;8865;47.636;7.692;2022-09-09T13:26:28;97979.69;;;26.40;39.91
9474;BME280;8865;47.636;7.692;2022-09-09T13:28:53;97992.16;;;26.46;39.61
9474;BME280;8865;47.636;7.692;2022-09-09T13:31:28;97985.69;;;27.09;38.73
9474;BME280;8865;47.636;7.692;2022-09-09T13:33:55;97980.72;;;27.79;38.49
9474;BME280;8865;47.636;7.692;2022-09-09T13:36:29;97978.41;;;28.97;37.21
9474;BME280;8865;47.636;7.692;2022-09-09T13:39:00;97966.06;;;29.54;34.37
9474;BME280;8865;47.636;7.692;2022-09-09T13:41:42;97966.09;;;30.74;32.21
9474;BME280;8865;47.636;7.692;2022-09-09T13:44:30;97945.50;;;35.32;27.25
9474;BME280;8865;47.636;7.692;2022-09-09T13:49:40;97950.03;;;41.72;22.36
9474;BME280;8865;47.636;7.692;2022-09-09T13:52:14;97935.47;;;42.53;18.39
9474;BME280;8865;47.636;7.692;2022-09-09T13:54:43;97937.66;;;44.50;17.25
9474;BME280;8865;47.636;7.692;2022-09-09T13:57:23;97934.38;;;44.87;16.85
9474;BME280;8865;47.636;7.692;2022-09-09T13:59:52;97930.97;;;44.74;15.92
9474;BME280;8865;47.636;7.692;2022-09-09T14:02:20;97934.19;;;44.33;16.62
9474;BME280;8865;47.636;7.692;2022-09-09T14:04:48;97936.69;;;43.16;17.12
9474;BME280;8865;47.636;7.692;2022-09-09T14:07:17;97937.34;;;44.16;16.37
9474;BME280;8865;47.636;7.692;2022-09-09T14:09:44;97934.50;;;42.61;17.25
9474;BME280;8865;47.636;7.692;2022-09-09T14:12:16;97927.69;;;43.35;17.30
9474;BME280;8865;47.636;7.692;2022-09-09T14:14:42;97925.34;;;41.88;18.48
9474;BME280;8865;47.636;7.692;2022-09-09T14:17:09;97926.13;;;40.78;18.99
9474;BME280;8865;47.636;7.692;2022-09-09T14:19:35;97925.81;;;41.90;18.55
9474;BME280;8865;47.636;7.692;2022-09-09T14:22:01;97926.91;;;39.69;20.13
9474;BME280;8865;47.636;7.692;2022-09-09T14:24:27;97927.06;;;37.07;22.58
9474;BME280;8865;47.636;7.692;2022-09-09T14:26:54;97938.34;;;35.36;25.63
9474;BME280;8865;47.636;7.692;2022-09-09T14:29:20;97930.22;;;33.61;25.86
9474;BME280;8865;47.636;7.692;2022-09-09T14:31:46;97930.69;;;33.20;28.04
9474;BME280;8865;47.636;7.692;2022-09-09T14:34:12;97933.41;;;32.22;28.33
9474;BME280;8865;47.636;7.692;2022-09-09T14:36:40;97924.66;;;31.30;29.49
9474;BME280;8865;47.636;7.692;2022-09-09T14:39:07;97937.16;;;30.70;30.19
9474;BME280;8865;47.636;7.692;2022-09-09T14:41:33;97931.19;;;30.11;31.05
9474;BME280;8865;47.636;7.692;2022-09-09T14:43:59;97942.44;;;29.82;31.75
9474;BME280;8865;47.636;7.692;2022-09-09T14:46:26;97928.28;;;29.54;31.27
9474;BME280;8865;47.636;7.692;2022-09-09T14:48:52;97941.72;;;29.39;32.20
9474;BME280;8865;47.636;7.692;2022-09-09T14:51:23;97937.63;;;28.89;34.97
9474;BME280;8865;47.636;7.692;2022-09-09T14:53:54;97932.91;;;28.41;33.68
9474;BME280;8865;47.636;7.692;2022-09-09T14:56:23;97938.50;;;27.80;35.40
9474;BME280;8865;47.636;7.692;2022-09-09T14:58:50;97939.44;;;27.47;36.57
9474;BME280;8865;47.636;7.692;2022-09-09T15:01:18;97933.03;;;27.14;37.01
9474;BME280;8865;47.636;7.692;2022-09-09T15:03:52;97926.31;;;27.11;39.24
9474;BME280;8865;47.636;7.692;2022-09-09T15:06:28;97931.63;;;26.89;39.12
9474;BME280;8865;47.636;7.692;2022-09-09T15:08:56;97918.06;;;26.79;39.16
9474;BME280;8865;47.636;7.692;2022-09-09T15:11:25;97920.72;;;26.62;41.42
9474;BME280;8865;47.636;7.692;2022-09-09T15:13:52;97920.66;;;26.73;43.56
9474;BME280;8865;47.636;7.692;2022-09-09T15:16:24;97924.69;;;26.59;43.34
9474;BME280;8865;47.636;7.692;2022-09-09T15:18:53;97932.03;;;26.47;43.11
9474;BME280;8865;47.636;7.692;2022-09-09T15:21:22;97926.53;;;26.25;43.75
9474;BME280;8865;47.636;7.692;2022-09-09T15:23:49;97934.84;;;26.23;44.42
9474;BME280;8865;47.636;7.692;2022-09-09T15:26:15;97926.41;;;26.31;43.90
9474;BME280;8865;47.636;7.692;2022-09-09T15:28:44;97932.97;;;26.24;45.26
9474;BME280;8865;47.636;7.692;2022-09-09T15:31:21;97934.25;;;26.04;43.56
9474;BME280;8865;47.636;7.692;2022-09-09T15:33:52;97940.53;;;26.10;48.94
9474;BME280;8865;47.636;7.692;2022-09-09T15:36:22;97939.84;;;25.91;46.79
9474;BME280;8865;47.636;7.692;2022-09-09T15:38:49;97945.41;;;25.72;47.47
9474;BME280;8865;47.636;7.692;2022-09-09T15:41:16;97951.88;;;25.59;53.90
9474;BME280;8865;47.636;7.692;2022-09-09T15:43:44;97961.09;;;25.40;53.52
9474;BME280;8865;47.636;7.692;2022-09-09T15:48:44;97982.66;;;24.86;53.50
9474;BME280;8865;47.636;7.692;2022-09-09T15:51:10;97976.75;;;23.93;52.05
9474;BME280;8865;47.636;7.692;2022-09-09T15:53:37;97976.75;;;23.74;54.06